Latest Weather Observations for Ballina

IDN60801

Issued at 9:35 pm EST Saturday 20 September 2014 (issued every 30 minutes, with the page automatically refreshed every 10 minutes)

About weather observations | Map of weather stations | Latest weather observations for NSW | Other Formats
Station Details ID: 058198 Name: BALLINA AIRPORT AWS Lat: -28.84 Lon: 153.56 Height: 1.3 m
Data from the previous 72 hours. | See also: Recent months at Ballina
Date/Time
EST
Temp
°C
App
Temp
°C
Dew
Point
Rel
Hum
%
Delta-T
°C
Wind Press
QNH
hPa
Press
MSL
hPa
Rain
since 9 am
mm
Dir
 
Spd
km/h
Gust
km/h
Spd
kts
Gust
kts
20/09:30pm 13.7 12.2 8.5 71 2.6 S 6 13 3 7 1025.5 1025.5 0.0
20/09:00pm 16.0 13.1 8.0 59 4.0 SE 13 17 7 9 1025.2 1025.2 0.0
20/08:30pm 16.4 13.5 8.1 58 4.2 SE 13 17 7 9 1024.9 1024.9 0.0
20/08:00pm 16.5 13.6 8.2 58 4.2 SE 13 17 7 9 1024.5 1024.5 0.0
20/07:30pm 17.4 14.3 8.8 57 4.4 SE 15 20 8 11 1024.2 1024.2 0.0
20/07:00pm 17.1 14.1 9.3 60 4.0 SSE 15 19 8 10 1023.7 1023.7 0.0
20/06:30pm 17.4 14.1 9.6 60 4.1 SE 17 24 9 13 1023.3 1023.3 0.0
20/06:00pm 17.3 14.1 10.0 62 3.8 SSE 17 24 9 13 1022.8 1022.8 0.0
20/05:30pm 17.5 15.0 9.7 60 4.1 SSE 13 19 7 10 1022.4 1022.4 0.0
20/05:00pm 18.7 14.8 9.5 55 4.8 SSE 20 28 11 15 1021.8 1021.8 0.0
20/04:30pm 19.3 15.6 10.3 56 4.8 SSE 20 28 11 15 1021.2 1021.2 0.0
20/04:00pm 19.5 15.9 9.7 53 5.2 SSE 19 28 10 15 1021.1 1021.1 0.0
20/03:30pm 20.2 15.7 10.0 52 5.5 SE 24 32 13 17 1020.8 1020.8 0.0
20/03:00pm 20.3 16.4 10.7 54 5.2 SSE 22 30 12 16 1020.5 1020.5 0.0
20/02:30pm 20.0 15.4 9.6 51 5.5 SSE 24 33 13 18 1020.7 1020.7 0.0
20/02:00pm 20.1 15.6 9.9 52 5.4 SSE 24 33 13 18 1020.6 1020.6 0.0
20/01:30pm 20.2 15.9 9.2 49 5.8 SSE 22 33 12 18 1020.9 1020.9 0.0
20/01:00pm 20.4 16.0 9.0 48 6.0 SSE 22 28 12 15 1021.3 1021.3 0.0
20/12:30pm 20.1 16.3 9.7 51 5.6 SSE 20 30 11 16 1021.5 1021.5 0.0
20/12:00pm 20.1 16.6 8.8 48 5.9 SSE 17 26 9 14 1021.9 1021.9 0.0
20/11:30am 20.2 17.1 10.3 53 5.3 SSE 17 22 9 12 1022.2 1022.2 0.0
20/11:00am 19.8 16.0 7.5 45 6.3 SSE 17 26 9 14 1022.5 1022.5 0.0
20/10:30am 19.6 16.9 8.9 50 5.6 SE 13 22 7 12 1022.7 1022.7 0.0
20/10:00am 19.8 17.3 9.7 52 5.4 S 13 19 7 10 1022.8 1022.8 0.0
20/09:30am 20.2 18.7 10.6 54 5.2 S 9 19 5 10 1023.0 1023.0 0.0
20/09:00am 19.4 17.0 10.1 55 5.0 SSE 13 19 7 10 1023.1 1023.1 0.4
20/08:30am 18.6 16.6 10.2 58 4.5 S 11 15 6 8 1023.0 1023.0 0.4
20/08:00am 17.9 15.9 10.3 61 4.0 SE 11 15 6 8 1022.8 1022.8 0.4
20/07:30am 17.4 16.3 10.8 65 3.5 SE 7 9 4 5 1022.6 1022.6 0.4
20/07:00am 17.0 15.0 10.1 64 3.6 SE 11 17 6 9 1022.1 1022.1 0.4
20/06:30am 16.9 14.1 11.4 70 3.0 SSE 17 22 9 12 1021.7 1021.7 0.4
20/06:00am 16.4 13.2 11.3 72 2.7 SE 19 28 10 15 1021.0 1021.0 0.4
20/05:30am 16.3 12.6 11.5 73 2.6 ESE 22 30 12 16 1020.6 1020.6 0.4
20/05:00am 16.3 12.7 11.7 74 2.5 SE 22 32 12 17 1020.2 1020.2 0.4
20/04:30am 16.6 13.7 12.4 76 2.3 SE 19 32 10 17 1019.9 1019.9 0.4
20/04:00am 16.4 14.0 12.8 79 2.0 SE 17 24 9 13 1019.8 1019.8 0.4
20/03:30am 16.0 14.4 12.7 81 1.8 SSE 13 19 7 10 1019.8 1019.8 0.4
20/03:00am 15.5 13.4 12.4 82 1.7 S 15 19 8 10 1019.7 1019.7 0.4
20/02:30am 15.5 12.6 12.4 82 1.7 SSE 19 24 10 13 1019.7 1019.7 0.4
20/02:00am 15.4 12.7 12.9 85 1.4 S 19 28 10 15 1019.7 1019.7 0.4
20/01:30am 14.5 12.9 12.9 90 0.9 WSW 13 17 7 9 1019.9 1019.9 0.4
20/01:00am 14.2 12.7 13.1 93 0.6 SSW 13 20 7 11 1019.7 1019.7 0.4
20/12:30am 12.5 11.6 11.4 93 0.6 W 7 9 4 5 1019.6 1019.6 0.4
20/12:00am 13.8 14.6 12.4 91 0.8 CALM 0 0 0 0 1019.3 1019.3 0.4
 
Date/Time
EST
Temp
°C
App
Temp
°C
Dew
Point
Rel
Hum
%
Delta-T
°C
Wind Press
QNH
hPa
Press
MSL
hPa
Rain
since 9 am
mm
Dir
 
Spd
km/h
Gust
km/h
Spd
kts
Gust
kts
19/11:30pm 14.7 14.3 12.4 86 1.3 NNW 6 7 3 4 1019.2 1019.2 0.4
19/11:00pm 15.5 15.0 12.6 83 1.6 NNW 7 9 4 5 1019.3 1019.3 0.4
19/10:30pm 15.8 15.0 12.9 83 1.6 NNW 9 11 5 6 1019.4 1019.4 0.4
19/10:00pm 16.4 16.0 13.1 81 1.8 N 7 9 4 5 1019.6 1019.6 0.4
19/09:30pm 15.7 15.3 13.0 84 1.5 N 7 11 4 6 1019.7 1019.7 0.4
19/09:00pm 14.8 14.4 12.3 85 1.4 N 6 7 3 4 1019.8 1019.8 0.4
19/08:30pm 15.8 15.4 12.9 83 1.6 N 7 11 4 6 1019.7 1019.7 0.4
19/08:00pm 15.6 15.0 12.2 80 1.8 N 7 9 4 5 1019.8 1019.8 0.4
19/07:30pm 17.3 17.0 12.6 74 2.6 N 6 9 3 5 1019.4 1019.4 0.4
19/07:00pm 17.7 16.8 12.6 72 2.8 N 9 13 5 7 1019.1 1019.1 0.4
19/06:30pm 17.3 16.0 11.1 67 3.3 NE 9 15 5 8 1018.6 1018.6 0.4
19/06:00pm 17.7 16.3 11.0 65 3.6 NE 9 13 5 7 1018.3 1018.3 0.4
19/05:30pm 18.9 16.4 11.0 60 4.3 ENE 15 19 8 10 1017.9 1017.9 0.4
19/05:00pm 19.9 16.6 10.9 56 4.9 NE 19 24 10 13 1017.6 1017.6 0.4
19/04:30pm 20.5 17.1 10.6 53 5.4 NE 19 28 10 15 1017.4 1017.4 0.4
19/04:00pm 20.9 16.9 11.8 56 5.1 NE 24 30 13 16 1017.2 1017.2 0.4
19/03:30pm 21.0 17.6 12.4 58 4.8 ENE 22 30 12 16 1017.2 1017.2 0.4
19/03:00pm 21.1 18.4 13.5 62 4.4 E 20 26 11 14 1017.3 1017.3 0.4
19/02:30pm 21.1 18.3 13.3 61 4.5 E 20 30 11 16 1017.4 1017.4 0.4
19/02:00pm 21.6 19.2 14.3 63 4.3 E 20 28 11 15 1018.0 1018.0 0.0
19/01:30pm 20.8 17.8 12.0 57 4.9 E 19 24 10 13 1018.5 1018.5 0.0
19/01:00pm 20.7 18.1 12.1 58 4.8 ESE 17 28 9 15 1019.1 1019.1 0.0
19/12:30pm 20.5 17.6 12.2 59 4.6 SE 19 26 10 14 1019.4 1019.4 0.0
19/12:00pm 20.8 18.3 12.2 58 4.8 SE 17 26 9 14 1019.8 1019.8 0.0
19/11:30am 19.8 16.9 12.3 62 4.2 SSE 19 24 10 13 1020.2 1020.2 0.0
19/11:00am 20.0 18.0 11.5 58 4.7 S 13 17 7 9 1020.6 1020.6 0.0
19/10:30am 20.6 18.7 11.8 57 4.9 SSE 13 19 7 10 1020.9 1020.9 0.0
19/10:00am 19.7 18.0 9.9 53 5.2 E 9 15 5 8 1021.3 1021.3 0.0
19/09:30am 20.5 20.0 12.0 58 4.7 WSW 6 11 3 6 1021.7 1021.7 0.0
19/09:00am 18.9 17.7 10.2 57 4.6 SSW 7 13 4 7 1022.0 1022.0 0.0
19/08:30am 17.8 15.8 10.2 61 4.0 W 11 15 6 8 1022.1 1022.1 0.0
19/08:00am 16.1 13.2 9.8 66 3.3 W 15 17 8 9 1022.0 1022.0 0.0
19/07:30am 14.4 12.8 10.2 76 2.2 W 9 13 5 7 1021.9 1021.9 0.0
19/07:00am 12.0 10.9 10.1 88 1.0 W 6 9 3 5 1021.5 1021.5 0.0
19/06:30am 10.0 10.0 9.7 98 0.2 CALM 0 0 0 0 1021.3 1021.3 0.0
19/06:00am 7.4 6.7 7.1 98 0.1 CALM 0 0 0 0 1020.8 1020.8 0.0
19/05:30am 7.4 6.7 7.0 97 0.2 CALM 0 0 0 0 1020.6 1020.6 0.0
19/05:00am 7.5 6.8 7.1 97 0.2 CALM 0 0 0 0 1020.5 1020.5 0.0
19/04:30am 8.2 7.7 7.8 97 0.2 CALM 0 0 0 0 1020.2 1020.2 0.0
19/04:00am 7.6 7.0 7.2 97 0.2 CALM 0 0 0 0 1019.9 1019.9 0.0
19/03:30am 8.3 7.8 7.9 97 0.2 CALM 0 0 0 0 1019.5 1019.5 0.0
19/03:00am 8.3 7.8 7.9 97 0.2 CALM 0 0 0 0 1019.7 1019.7 0.0
19/02:44am 8.4 7.9 8.0 97 0.2 CALM 0 0 0 0 1019.7 1019.7 0.0
19/02:30am 8.5 8.1 8.1 97 0.2 CALM 0 0 0 0 1019.8 1019.8 0.0
19/02:08am 8.7 8.3 8.3 97 0.2 CALM 0 0 0 0 1019.9 1019.9 0.0
19/02:00am 8.2 7.6 7.6 96 0.3 CALM 0 0 0 0 1019.9 1019.9 0.0
19/01:30am 8.8 8.4 8.2 96 0.3 CALM 0 0 0 0 1020.3 1020.3 0.0
19/01:00am 9.0 8.6 8.4 96 0.3 CALM 0 0 0 0 1020.4 1020.4 0.0
19/12:30am 8.7 8.2 7.8 94 0.4 CALM 0 0 0 0 1020.5 1020.5 0.0
19/12:00am 9.4 9.1 8.5 94 0.4 CALM 0 0 0 0 1020.6 1020.6 0.0
 
Date/Time
EST
Temp
°C
App
Temp
°C
Dew
Point
Rel
Hum
%
Delta-T
°C
Wind Press
QNH
hPa
Press
MSL
hPa
Rain
since 9 am
mm
Dir
 
Spd
km/h
Gust
km/h
Spd
kts
Gust
kts
18/11:30pm 9.9 9.7 9.0 94 0.4 CALM 0 0 0 0 1020.9 1020.9 0.0
18/11:00pm 9.7 9.4 8.5 92 0.6 CALM 0 0 0 0 1020.8 1020.8 0.0
18/10:30pm 10.1 9.0 8.5 90 0.8 W 4 6 2 3 1020.8 1020.8 0.0
18/10:00pm 10.5 9.5 8.9 90 0.8 W 4 6 2 3 1020.7 1020.7 0.0
18/09:30pm 10.3 9.9 8.2 87 1.0 CALM 0 0 0 0 1020.5 1020.5 0.0
18/09:00pm 11.1 10.3 8.3 83 1.4 W 2 6 1 3 1020.3 1020.3 0.0
18/08:30pm 12.0 10.8 9.7 86 1.2 W 6 9 3 5 1019.9 1019.9 0.0
18/08:00pm 12.8 12.7 9.6 81 1.6 CALM 0 0 0 0 1019.5 1019.5 0.0
18/07:30pm 13.0 12.8 8.9 76 2.1 CALM 0 0 0 0 1018.8 1018.8 0.0
18/07:00pm 13.9 12.5 8.9 72 2.5 N 6 7 3 4 1018.3 1018.3 0.0
18/06:30pm 15.0 13.4 8.9 67 3.1 NNW 7 9 4 5 1017.8 1017.8 0.0
18/06:00pm 17.0 14.9 8.4 57 4.4 NNE 9 11 5 6 1017.2 1017.2 0.0
18/05:30pm 18.4 15.3 7.2 48 5.6 E 13 19 7 10 1016.9 1016.9 0.0
18/05:00pm 19.3 15.8 7.1 45 6.2 E 15 20 8 11 1016.8 1016.8 0.0
18/04:30pm 19.9 15.4 7.0 43 6.5 E 20 28 11 15 1016.4 1016.4 0.0
18/04:00pm 20.4 16.1 7.1 42 6.8 ESE 19 26 10 14 1016.2 1016.2 0.0
18/03:30pm 20.6 15.7 5.0 36 7.6 ESE 20 24 11 13 1015.9 1015.9 0.0
18/03:00pm 21.1 16.6 5.9 37 7.6 SE 19 24 10 13 1016.1 1016.1 0.0
18/02:30pm 21.4 16.6 4.5 33 8.2 SE 19 22 10 12 1016.1 1016.1 0.0
18/02:00pm 21.4 16.2 3.6 31 8.5 SE 20 26 11 14 1016.2 1016.2 0.0
18/01:30pm 21.5 15.8 2.7 29 8.9 SSE 22 28 12 15 1016.4 1016.4 0.0
18/01:00pm 21.7 16.3 2.4 28 9.0 SE 20 28 11 15 1016.7 1016.7 0.0
18/12:30pm 21.9 15.9 3.6 30 8.8 SSE 24 30 13 16 1017.1 1017.1 0.0
18/12:00pm 22.6 16.8 2.1 26 9.6 SW 22 28 12 15 1017.5 1017.5 0.0
18/11:30am 22.6 17.9 5.1 32 8.7 W 19 32 10 17 1018.0 1018.0 0.0
18/11:00am 21.9 16.6 2.1 27 9.2 SSW 19 30 10 16 1018.4 1018.4 0.0
18/10:30am 21.4 15.0 1.1 26 9.3 WSW 24 32 13 17 1018.7 1018.7 0.0
18/10:00am 21.1 14.5 1.9 28 8.9 WSW 26 39 14 21 1019.0 1019.0 0.0
18/09:30am 20.4 14.1 1.3 28 8.7 SW 24 33 13 18 1019.2 1019.2 0.0
18/09:00am 20.2 15.2 4.7 36 7.5 SW 20 32 11 17 1019.4 1019.4 0.0
18/08:30am 19.3 13.7 3.5 35 7.4 SW 22 32 12 17 1019.4 1019.4 0.0
18/08:00am 18.8 14.4 4.9 40 6.7 WSW 17 24 9 13 1019.2 1019.2 0.0
18/07:30am 17.4 14.1 6.6 49 5.3 WSW 13 15 7 8 1018.9 1018.9 0.0
18/07:00am 15.1 12.0 7.2 59 3.9 W 13 15 7 8 1018.7 1018.7 0.0
18/06:30am 12.3 8.6 6.1 66 2.9 W 15 17 8 9 1018.2 1018.2 0.0
18/06:00am 10.7 6.6 4.2 64 2.9 W 15 17 8 9 1017.7 1017.7 0.0
18/05:30am 11.7 8.3 4.2 60 3.4 W 11 13 6 7 1017.3 1017.3 0.0
18/05:00am 11.3 7.6 4.3 62 3.1 W 13 17 7 9 1016.8 1016.8 0.0
18/04:30am 11.2 7.2 4.7 64 2.9 W 15 17 8 9 1016.4 1016.4 0.0
18/04:00am 11.2 7.1 4.4 63 3.1 W 15 17 8 9 1016.1 1016.1 0.0
18/03:30am 12.2 9.0 5.1 62 3.3 W 11 13 6 7 1015.9 1015.9 0.0
18/03:00am 11.6 9.2 6.9 73 2.2 WNW 9 11 5 6 1015.7 1015.7 0.0
18/02:30am 11.5 9.6 7.4 76 2.0 NNW 7 9 4 5 1015.6 1015.6 0.0
18/02:00am 11.9 10.1 7.2 73 2.3 NNW 6 7 3 4 1015.5 1015.5 0.0
18/01:30am 13.1 11.1 6.2 63 3.3 W 6 7 3 4 1015.7 1015.7 0.0
18/01:00am 14.4 11.5 4.7 52 4.5 W 9 11 5 6 1015.7 1015.7 0.0
18/12:30am 14.1 10.8 4.7 53 4.4 W 11 13 6 7 1015.5 1015.5 0.0
18/12:00am 16.0 12.6 4.1 45 5.5 SW 11 13 6 7 1015.4 1015.4 0.0
 
Date/Time
EST
Temp
°C
App
Temp
°C
Dew
Point
Rel
Hum
%
Delta-T
°C
Wind Press
QNH
hPa
Press
MSL
hPa
Rain
since 9 am
mm
Dir
 
Spd
km/h
Gust
km/h
Spd
kts
Gust
kts
17/11:30pm 14.5 10.9 5.0 53 4.4 W 13 17 7 9 1015.5 1015.5 0.0
17/11:00pm 14.5 10.4 6.1 57 4.0 W 17 19 9 10 1015.6 1015.6 0.0
17/10:30pm 14.1 11.2 6.5 60 3.7 W 11 15 6 8 1015.5 1015.5 0.0
17/10:00pm 14.9 12.1 7.0 59 3.9 W 11 15 6 8 1015.3 1015.3 0.0

Other Formats:

Comma delimited format used in spreadsheet applications
http://www.bom.gov.au/fwo/IDN60801/IDN60801.94596.axf

JavaScript Object Notation format (JSON) in row-major order
http://www.bom.gov.au/fwo/IDN60801/IDN60801.94596.json